Time;durP1;ratioP1;P1;durP2;ratioP2;P2;SDS_P1;SDS_P2;PMS_P1;PMS_P2;Temp;Humidity;BMP_temperature;BMP_pressure;BME280_temperature;BME280_humidity;BME280_pressure;Samples;Min_cycle;Max_cycle;Signal;HPM_P1;HPM_P2
2021/03/24 00:01:06;;;;;;;22.65;10.15;;;;;;;;;;5029464;28;20038;-90
2021/03/24 00:03:34;;;;;;;22.42;10.35;;;;;;;;;;5032917;28;20053;-89
2021/03/24 00:06:02;;;;;;;26.08;11.18;;;;;;;;;;5054913;28;20056;-89
2021/03/24 00:08:31;;;;;;;20.27;10.27;;;;;;;;;;5051783;28;20049;-89
2021/03/24 00:10:58;;;;;;;20.35;9.73;;;;;;;;;;5051909;28;20068;-89
2021/03/24 00:13:26;;;;;;;29.05;11.23;;;;;;;;;;5046620;28;20079;-89
2021/03/24 00:15:55;;;;;;;23.02;11.55;;;;;;;;;;5052650;28;20045;-89
2021/03/24 00:18:23;;;;;;;22.95;10.77;;;;;;;;;;5051219;28;20069;-89
2021/03/24 00:20:52;;;;;;;23.02;10.95;;;;;;;;;;5051931;28;20133;-89
2021/03/24 00:23:20;;;;;;;23.50;10.38;;;;;;;;;;5046529;28;20485;-89
2021/03/24 00:25:48;;;;;;;22.15;10.55;;;;;;;;;;5051684;28;20064;-89
2021/03/24 00:28:17;;;;;;;20.60;9.77;;;;;;;;;;5048849;28;20076;-89
2021/03/24 00:30:46;;;;;;;26.70;10.93;;;;;;;;;;5051699;28;20635;-89
2021/03/24 00:33:14;;;;;;;18.77;8.98;;;;;;;;;;5051557;28;20115;-90
2021/03/24 00:35:42;;;;;;;24.00;10.18;;;;;;;;;;5050901;28;20124;-89
2021/03/24 00:38:10;;;;;;;22.23;10.07;;;;;;;;;;5051064;28;20091;-89
2021/03/24 00:40:38;;;;;;;25.38;10.60;;;;;;;;;;5048088;28;20166;-89
2021/03/24 00:43:07;;;;;;;25.27;10.10;;;;;;;;;;5051700;28;20053;-90
2021/03/24 00:45:35;;;;;;;23.80;10.65;;;;;;;;;;5050954;28;20056;-90
2021/03/24 00:48:04;;;;;;;23.73;10.20;;;;;;;;;;5050468;28;20049;-89
2021/03/24 00:50:34;;;;;;;22.58;10.55;;;;;;;;;;5050548;28;20136;-90
2021/03/24 00:53:02;;;;;;;21.98;10.10;;;;;;;;;;5052127;28;20390;-89
2021/03/24 00:55:29;;;;;;;24.92;11.27;;;;;;;;;;5049785;28;20083;-90
2021/03/24 00:57:56;;;;;;;24.27;10.70;;;;;;;;;;5050135;28;20095;-90
2021/03/24 01:00:26;;;;;;;28.40;10.77;;;;;;;;;;5050688;28;20045;-89
2021/03/24 01:02:54;;;;;;;25.05;10.55;;;;;;;;;;5050038;28;20094;-89
2021/03/24 01:05:22;;;;;;;22.17;10.88;;;;;;;;;;5050082;28;20508;-90
2021/03/24 01:07:50;;;;;;;23.83;10.07;;;;;;;;;;5049514;28;20044;-89
2021/03/24 01:10:20;;;;;;;24.05;10.88;;;;;;;;;;5049463;28;20459;-89
2021/03/24 01:12:47;;;;;;;22.30;10.63;;;;;;;;;;5047601;28;20080;-89
2021/03/24 01:15:15;;;;;;;25.52;10.25;;;;;;;;;;5050380;28;20077;-89
2021/03/24 01:17:43;;;;;;;24.88;9.75;;;;;;;;;;5045562;28;20068;-89
2021/03/24 01:20:12;;;;;;;21.85;10.65;;;;;;;;;;5050421;28;20049;-89
2021/03/24 01:22:52;;;;;;;20.58;9.57;;;;;;;;;;5050549;28;20036;-89
2021/03/24 01:25:20;;;;;;;23.02;9.85;;;;;;;;;;5050160;28;20564;-89
2021/03/24 01:27:47;;;;;;;25.30;10.57;;;;;;;;;;5046807;28;20432;-89
2021/03/24 01:30:15;;;;;;;22.27;10.88;;;;;;;;;;5052390;28;20077;-89
2021/03/24 01:32:44;;;;;;;21.27;10.45;;;;;;;;;;5050103;28;20484;-89
2021/03/24 01:35:12;;;;;;;23.90;9.93;;;;;;;;;;5048329;28;20048;-89
2021/03/24 01:37:41;;;;;;;24.00;9.48;;;;;;;;;;5050040;28;20049;-89
2021/03/24 01:40:10;;;;;;;22.45;10.63;;;;;;;;;;5049137;28;20124;-89
2021/03/24 01:42:38;;;;;;;21.63;10.13;;;;;;;;;;5049626;28;20163;-88
2021/03/24 01:45:26;;;;;;;23.92;10.48;;;;;;;;;;5047015;28;20128;-89
2021/03/24 01:47:55;;;;;;;24.92;11.00;;;;;;;;;;5049308;28;20647;-89
2021/03/24 01:50:25;;;;;;;25.27;10.57;;;;;;;;;;5049856;28;20044;-89
2021/03/24 01:52:55;;;;;;;23.55;10.75;;;;;;;;;;5050172;28;20524;-89
2021/03/24 01:55:23;;;;;;;20.40;10.27;;;;;;;;;;5032490;28;20136;-89
2021/03/24 01:57:50;;;;;;;25.17;11.60;;;;;;;;;;5048740;28;20140;-89
2021/03/24 02:02:58;;;;;;;20.35;10.15;;;;;;;;;;4993339;28;20576;-71
2021/03/24 02:05:26;;;;;;;22.52;10.63;;;;;;;;;;5010579;28;20053;-71
2021/03/24 02:07:54;;;;;;;23.58;10.10;;;;;;;;;;5005446;28;20049;-70
2021/03/24 02:10:24;;;;;;;26.45;11.07;;;;;;;;;;5008605;28;20104;-70
2021/03/24 02:12:54;;;;;;;23.35;10.27;;;;;;;;;;5009172;28;20050;-71
2021/03/24 02:15:24;;;;;;;23.30;10.50;;;;;;;;;;5010015;28;20054;-71
2021/03/24 02:17:52;;;;;;;28.17;11.30;;;;;;;;;;5008468;28;20050;-71
2021/03/24 02:20:22;;;;;;;22.02;10.30;;;;;;;;;;5007709;28;20499;-71
2021/03/24 02:22:51;;;;;;;22.35;9.70;;;;;;;;;;5010688;28;20045;-71
2021/03/24 02:25:21;;;;;;;26.73;10.38;;;;;;;;;;5009891;28;20100;-71
2021/03/24 02:27:51;;;;;;;21.73;10.55;;;;;;;;;;5004226;28;20049;-72
2021/03/24 02:30:20;;;;;;;20.08;9.90;;;;;;;;;;5001871;28;20049;-72
2021/03/24 02:32:54;;;;;;;24.27;10.52;;;;;;;;;;5001562;28;20133;-70
2021/03/24 02:35:23;;;;;;;25.70;10.23;;;;;;;;;;5008987;28;20421;-71
2021/03/24 02:37:51;;;;;;;22.10;10.35;;;;;;;;;;5007834;28;20089;-71
2021/03/24 02:40:19;;;;;;;23.02;10.43;;;;;;;;;;5008997;28;20465;-71
2021/03/24 02:42:48;;;;;;;18.63;9.18;;;;;;;;;;5009325;28;20488;-71
2021/03/24 02:45:19;;;;;;;20.95;10.18;;;;;;;;;;5009406;28;20042;-71
2021/03/24 02:47:47;;;;;;;25.77;10.32;;;;;;;;;;5007958;28;20051;-71
2021/03/24 02:50:15;;;;;;;20.20;9.15;;;;;;;;;;5003738;28;20112;-71
2021/03/24 02:52:43;;;;;;;21.30;9.50;;;;;;;;;;5011058;28;20088;-72
2021/03/24 02:55:12;;;;;;;24.60;10.63;;;;;;;;;;5016298;28;20042;-71
2021/03/24 02:57:40;;;;;;;21.88;10.10;;;;;;;;;;5010216;28;20141;-71
2021/03/24 03:00:07;;;;;;;23.63;10.60;;;;;;;;;;5006184;28;20493;-72
2021/03/24 03:02:38;;;;;;;28.20;11.77;;;;;;;;;;4993477;28;20082;-71
2021/03/24 03:05:07;;;;;;;26.92;10.35;;;;;;;;;;4986424;28;20059;-71
2021/03/24 03:07:38;;;;;;;22.55;9.68;;;;;;;;;;4991190;28;20051;-71
2021/03/24 03:10:07;;;;;;;26.67;9.65;;;;;;;;;;4991878;28;20453;-71
2021/03/24 03:12:35;;;;;;;24.75;10.10;;;;;;;;;;4990464;28;20058;-72
2021/03/24 03:15:06;;;;;;;24.02;9.95;;;;;;;;;;4992570;28;20101;-71
2021/03/24 03:17:36;;;;;;;22.98;10.10;;;;;;;;;;4991444;28;20106;-71
2021/03/24 03:20:09;;;;;;;19.67;9.10;;;;;;;;;;4987646;28;20057;-72
2021/03/24 03:22:38;;;;;;;25.77;9.85;;;;;;;;;;4988850;28;20057;-72
2021/03/24 03:25:09;;;;;;;21.70;9.80;;;;;;;;;;4991606;28;20130;-71
2021/03/24 03:27:38;;;;;;;21.88;10.32;;;;;;;;;;4990650;28;20518;-71
2021/03/24 03:30:07;;;;;;;25.75;10.07;;;;;;;;;;4991980;28;20104;-71
2021/03/24 03:32:34;;;;;;;23.55;10.00;;;;;;;;;;4991237;28;20565;-71
2021/03/24 03:35:03;;;;;;;25.25;9.38;;;;;;;;;;4991502;28;20409;-71
2021/03/24 03:37:32;;;;;;;24.85;10.07;;;;;;;;;;4991213;28;20097;-72
2021/03/24 03:39:59;;;;;;;21.02;9.43;;;;;;;;;;4991470;28;20553;-72
2021/03/24 03:42:27;;;;;;;22.52;9.77;;;;;;;;;;4990874;28;20470;-72
2021/03/24 03:44:56;;;;;;;32.45;10.65;;;;;;;;;;4988468;28;20050;-71
2021/03/24 03:47:24;;;;;;;28.98;10.65;;;;;;;;;;4990449;28;20132;-72
2021/03/24 03:49:51;;;;;;;26.02;10.20;;;;;;;;;;4991259;28;20100;-72
2021/03/24 03:52:25;;;;;;;24.92;10.25;;;;;;;;;;4991184;28;20617;-72
2021/03/24 03:54:59;;;;;;;28.30;10.48;;;;;;;;;;4991647;28;20112;-71
2021/03/24 03:57:31;;;;;;;29.33;12.17;;;;;;;;;;4990565;28;20082;-72
2021/03/24 04:00:02;;;;;;;25.63;10.57;;;;;;;;;;4985777;28;20051;-72
2021/03/24 04:02:32;;;;;;;25.48;10.90;;;;;;;;;;4978350;28;567853;-72
2021/03/24 04:05:07;;;;;;;30.73;10.77;;;;;;;;;;4993324;28;20490;-70
2021/03/24 04:07:36;;;;;;;24.95;11.15;;;;;;;;;;5002073;28;20611;-72
2021/03/24 04:10:05;;;;;;;22.92;11.23;;;;;;;;;;4996611;28;20173;-72
2021/03/24 04:12:35;;;;;;;25.70;10.27;;;;;;;;;;4998921;28;20480;-72
2021/03/24 04:15:04;;;;;;;22.15;9.75;;;;;;;;;;5004322;28;20554;-71
2021/03/24 04:17:34;;;;;;;23.85;10.00;;;;;;;;;;4995307;28;20153;-71
2021/03/24 04:20:03;;;;;;;19.25;9.63;;;;;;;;;;4990949;28;20061;-74
2021/03/24 04:22:31;;;;;;;23.35;10.05;;;;;;;;;;4992407;28;20563;-73
2021/03/24 04:25:15;;;;;;;24.02;9.55;;;;;;;;;;4992603;28;20105;-71
2021/03/24 04:27:44;;;;;;;22.63;10.55;;;;;;;;;;4979256;28;20445;-72
2021/03/24 04:30:15;;;;;;;26.48;10.70;;;;;;;;;;4995124;28;20129;-71
2021/03/24 04:32:42;;;;;;;22.02;9.57;;;;;;;;;;4995623;28;20085;-73
2021/03/24 04:35:12;;;;;;;20.20;9.65;;;;;;;;;;5000019;28;20057;-71
2021/03/24 04:37:41;;;;;;;23.58;10.25;;;;;;;;;;4998634;28;20537;-72
2021/03/24 04:40:12;;;;;;;26.30;9.48;;;;;;;;;;4999000;28;20136;-73
2021/03/24 04:42:43;;;;;;;21.75;10.55;;;;;;;;;;4988470;28;20443;-72
2021/03/24 04:45:17;;;;;;;27.27;11.20;;;;;;;;;;4992316;28;20196;-70
2021/03/24 04:47:50;;;;;;;24.08;9.93;;;;;;;;;;4990771;28;20052;-71
2021/03/24 04:50:20;;;;;;;25.38;10.27;;;;;;;;;;4998836;28;20064;-71
2021/03/24 04:52:48;;;;;;;22.10;10.05;;;;;;;;;;4995078;28;20133;-71
2021/03/24 04:55:33;;;;;;;;;;;;;;;;;;4992555;28;20050;-72
2021/03/24 04:58:02;;;;;;;27.63;10.20;;;;;;;;;;4993507;28;19932;-71
2021/03/24 05:00:33;;;;;;;23.25;10.45;;;;;;;;;;4998173;28;20490;-72
2021/03/24 05:03:04;;;;;;;24.60;10.40;;;;;;;;;;4990210;28;20112;-71
2021/03/24 05:05:32;;;;;;;24.00;10.32;;;;;;;;;;5001143;28;20054;-71
2021/03/24 05:08:02;;;;;;;22.35;10.00;;;;;;;;;;4998999;28;20054;-71
2021/03/24 05:10:33;;;;;;;21.55;9.77;;;;;;;;;;4997243;28;20042;-71
2021/03/24 05:13:04;;;;;;;22.42;9.50;;;;;;;;;;5000542;28;20129;-71
2021/03/24 05:15:34;;;;;;;22.67;9.88;;;;;;;;;;4995603;28;20050;-70
2021/03/24 05:18:02;;;;;;;17.88;8.68;;;;;;;;;;4992601;28;20416;-72
2021/03/24 05:20:32;;;;;;;21.02;9.68;;;;;;;;;;4988952;28;20042;-72
2021/03/24 05:23:00;;;;;;;22.58;11.02;;;;;;;;;;4993805;28;20132;-72
2021/03/24 05:25:29;;;;;;;23.73;10.88;;;;;;;;;;4990989;28;20469;-72
2021/03/24 05:27:59;;;;;;;22.60;9.95;;;;;;;;;;5002513;28;20480;-71
2021/03/24 05:30:28;;;;;;;26.23;10.77;;;;;;;;;;4989911;28;20058;-72
2021/03/24 05:33:00;;;;;;;20.92;9.90;;;;;;;;;;4992672;28;20496;-72
2021/03/24 05:35:32;;;;;;;26.38;9.95;;;;;;;;;;4998197;28;20048;-71
2021/03/24 05:38:03;;;;;;;24.67;10.07;;;;;;;;;;4983642;28;20078;-71
2021/03/24 05:40:46;;;;;;;28.73;10.25;;;;;;;;;;4989487;28;20457;-71
2021/03/24 05:43:28;;;;;;;23.55;9.98;;;;;;;;;;4987573;28;20462;-71
2021/03/24 05:46:00;;;;;;;27.05;10.07;;;;;;;;;;4988206;28;20528;-72
2021/03/24 05:48:54;;;;;;;22.42;9.68;;;;;;;;;;4991774;28;20054;-72
2021/03/24 05:51:28;;;;;;;26.80;9.90;;;;;;;;;;4953747;28;20050;-72
2021/03/24 05:54:13;;;;;;;19.92;9.80;;;;;;;;;;4987235;28;20516;-72
2021/03/24 05:56:56;;;;;;;21.25;9.55;;;;;;;;;;4991331;28;20046;-72
2021/03/24 05:59:25;;;;;;;25.17;9.65;;;;;;;;;;4982959;28;20431;-72
2021/03/24 06:01:55;;;;;;;24.23;9.77;;;;;;;;;;4983999;28;20137;-72
2021/03/24 06:04:26;;;;;;;21.05;9.55;;;;;;;;;;4982302;28;20679;-71
2021/03/24 06:07:30;;;;;;;22.62;9.62;;;;;;;;;;4445733;28;10001183;-72
2021/03/24 06:10:07;;;;;;;23.73;11.00;;;;;;;;;;4104072;28;10001168;-72
2021/03/24 06:12:45;;;;;;;22.55;9.85;;;;;;;;;;4983876;28;20046;-72
2021/03/24 06:15:19;;;;;;;23.75;9.68;;;;;;;;;;4988031;28;20133;-72
2021/03/24 06:17:57;;;;;;;24.15;9.25;;;;;;;;;;4986518;28;20137;-72
2021/03/24 06:20:30;;;;;;;19.75;9.48;;;;;;;;;;4982417;28;20043;-72
2021/03/24 06:23:27;;;;;;;25.15;10.82;;;;;;;;;;4987301;28;20120;-73
2021/03/24 06:25:58;;;;;;;22.90;9.95;;;;;;;;;;4947730;28;20057;-74
2021/03/24 06:28:34;;;;;;;22.95;9.70;;;;;;;;;;4981160;28;20549;-73
2021/03/24 06:31:06;;;;;;;23.52;10.27;;;;;;;;;;4987927;28;20151;-73
2021/03/24 06:33:47;;;;;;;27.63;9.88;;;;;;;;;;4982979;28;20083;-74
2021/03/24 06:36:34;;;;;;;25.50;10.35;;;;;;;;;;4985876;28;20046;-72
2021/03/24 06:39:08;;;;;;;19.10;9.48;;;;;;;;;;4981949;28;20588;-69
2021/03/24 06:41:43;;;;;;;19.33;10.00;;;;;;;;;;4985393;28;20137;-70
2021/03/24 06:44:24;;;;;;;27.10;10.05;;;;;;;;;;4976311;28;20498;-71
2021/03/24 06:46:55;;;;;;;26.13;10.90;;;;;;;;;;4974851;28;20430;-71
2021/03/24 06:49:31;;;;;;;26.88;11.60;;;;;;;;;;4984777;28;20063;-65
2021/03/24 06:52:17;;;;;;;27.38;11.30;;;;;;;;;;4984930;28;20133;-65
2021/03/24 06:55:17;;;;;;;25.25;11.70;;;;;;;;;;4984102;28;20148;-66
2021/03/24 06:58:03;;;;;;;22.88;10.30;;;;;;;;;;4982781;28;20046;-67
2021/03/24 07:00:39;;;;;;;27.42;11.13;;;;;;;;;;4984594;28;20129;-66
2021/03/24 07:03:29;;;;;;;28.88;12.48;;;;;;;;;;5001604;28;20046;-66
2021/03/24 07:06:08;;;;;;;30.00;12.63;;;;;;;;;;5004274;28;20050;-66
2021/03/24 07:08:58;;;;;;;25.90;11.45;;;;;;;;;;5001096;28;20045;-66
2021/03/24 07:11:34;;;;;;;26.40;11.48;;;;;;;;;;5005865;28;20057;-64
2021/03/24 07:14:23;;;;;;;27.13;11.48;;;;;;;;;;5003923;28;20132;-66
2021/03/24 07:17:03;;;;;;;28.77;12.15;;;;;;;;;;5005781;28;20046;-66
2021/03/24 07:19:42;;;;;;;31.05;11.75;;;;;;;;;;4999867;28;20129;-65
2021/03/24 07:22:19;;;;;;;28.48;11.00;;;;;;;;;;5001807;28;20639;-66
2021/03/24 07:24:50;;;;;;;29.27;12.40;;;;;;;;;;4991553;28;20053;-66
2021/03/24 07:27:48;;;;;;;30.33;11.65;;;;;;;;;;5005320;28;20084;-66
2021/03/24 07:30:21;;;;;;;26.95;10.82;;;;;;;;;;5004513;28;20061;-66
2021/03/24 07:32:51;;;;;;;28.60;12.88;;;;;;;;;;5002881;28;20045;-66
2021/03/24 07:35:26;;;;;;;30.02;11.93;;;;;;;;;;5004834;28;20530;-66
2021/03/24 07:38:12;;;;;;;29.80;11.95;;;;;;;;;;5004994;28;20556;-66
2021/03/24 07:41:06;;;;;;;26.60;10.85;;;;;;;;;;5005352;28;20053;-66
2021/03/24 07:43:50;;;;;;;24.00;10.98;;;;;;;;;;4959562;28;20111;-65
2021/03/24 07:46:31;;;;;;;24.98;11.60;;;;;;;;;;5001071;28;20058;-65
2021/03/24 07:49:22;;;;;;;30.55;11.85;;;;;;;;;;5004788;28;20065;-65
2021/03/24 07:52:07;;;;;;;24.67;11.60;;;;;;;;;;5005417;28;20485;-66
2021/03/24 07:54:35;;;;;;;;;;;;;;;;;;4986596;28;20053;-66
2021/03/24 07:57:08;;;;;;;26.83;11.75;;;;;;;;;;5003517;28;20406;-66
2021/03/24 07:59:40;;;;;;;29.67;12.90;;;;;;;;;;5003081;28;20421;-66
2021/03/24 08:02:26;;;;;;;31.65;12.55;;;;;;;;;;4996087;28;20046;-66
2021/03/24 08:05:05;;;;;;;28.65;13.38;;;;;;;;;;4982761;28;20081;-66
2021/03/24 08:07:36;;;;;;;27.75;11.95;;;;;;;;;;4986614;28;20057;-66
2021/03/24 08:10:27;;;;;;;23.52;11.88;;;;;;;;;;4986818;28;20697;-66
2021/03/24 08:13:25;;;;;;;30.25;11.85;;;;;;;;;;4987542;28;20223;-66
2021/03/24 08:15:59;;;;;;;22.77;10.90;;;;;;;;;;4989839;28;20052;-66
2021/03/24 08:18:35;;;;;;;20.05;10.95;;;;;;;;;;4986809;28;20400;-67
2021/03/24 08:21:06;;;;;;;25.83;11.55;;;;;;;;;;4987688;28;20125;-67
2021/03/24 08:23:42;;;;;;;27.60;11.45;;;;;;;;;;4982697;28;20471;-67
2021/03/24 08:26:14;;;;;;;23.45;11.70;;;;;;;;;;4983097;28;20057;-67
2021/03/24 08:28:44;;;;;;;26.13;11.80;;;;;;;;;;4992191;28;20501;-66
2021/03/24 08:31:26;;;;;;;31.17;13.02;;;;;;;;;;4987424;28;20058;-66
2021/03/24 08:34:01;;;;;;;25.42;11.48;;;;;;;;;;4988337;28;20050;-66
2021/03/24 08:36:45;;;;;;;28.83;11.95;;;;;;;;;;4978563;28;20116;-66
2021/03/24 08:39:46;;;;;;;29.00;11.70;;;;;;;;;;4987967;28;20550;-66
2021/03/24 08:42:41;;;;;;;27.73;12.07;;;;;;;;;;4926304;29;20062;-66
2021/03/24 08:45:17;;;;;;;32.17;12.60;;;;;;;;;;4926334;29;20047;-66
2021/03/24 08:47:48;;;;;;;25.02;11.98;;;;;;;;;;4967249;28;20116;-66
2021/03/24 08:50:18;;;;;;;25.20;10.70;;;;;;;;;;4985819;28;20082;-66
2021/03/24 08:52:54;;;;;;;24.52;11.65;;;;;;;;;;4985460;28;20525;-66
2021/03/24 08:55:29;;;;;;;27.40;11.75;;;;;;;;;;4981156;28;20046;-66
2021/03/24 08:58:18;;;;;;;27.70;11.25;;;;;;;;;;4987648;28;20379;-65
2021/03/24 09:00:51;;;;;;;27.40;11.95;;;;;;;;;;4980398;28;20148;-65
2021/03/24 09:03:27;;;;;;;27.58;12.82;;;;;;;;;;4987231;28;20058;-66
2021/03/24 09:06:00;;;;;;;29.40;11.63;;;;;;;;;;4986172;28;20334;-65
2021/03/24 09:08:31;;;;;;;29.45;12.40;;;;;;;;;;4986653;28;20082;-66
2021/03/24 09:11:09;;;;;;;29.15;11.85;;;;;;;;;;4986752;28;20137;-67
2021/03/24 09:13:40;;;;;;;26.60;12.93;;;;;;;;;;4985688;28;20422;-65
2021/03/24 09:16:26;;;;;;;26.20;10.88;;;;;;;;;;4981175;28;20054;-65
2021/03/24 09:18:58;;;;;;;29.15;12.52;;;;;;;;;;4983102;28;20050;-65
2021/03/24 09:21:27;;;;;;;25.73;12.68;;;;;;;;;;4986355;28;20057;-66
2021/03/24 09:24:12;;;;;;;30.88;12.40;;;;;;;;;;4981974;28;20434;-65
2021/03/24 09:26:40;;;;;;;;;;;;;;;;;;4981444;28;20055;-66
2021/03/24 09:29:15;;;;;;;24.67;12.80;;;;;;;;;;4983187;28;19922;-66
2021/03/24 09:31:57;;;;;;;30.60;13.32;;;;;;;;;;4980824;28;20054;-66
2021/03/24 09:34:35;;;;;;;24.80;11.30;;;;;;;;;;4981277;28;20425;-66
2021/03/24 09:37:05;;;;;;;28.35;13.30;;;;;;;;;;4976026;28;20042;-66
2021/03/24 09:39:35;;;;;;;26.88;12.32;;;;;;;;;;4982114;28;20397;-66
2021/03/24 09:42:06;;;;;;;29.73;11.48;;;;;;;;;;4981595;28;20046;-66
2021/03/24 09:44:36;;;;;;;26.95;13.60;;;;;;;;;;4984326;28;20064;-66
2021/03/24 09:47:03;;;;;;;31.30;12.32;;;;;;;;;;4983931;28;20058;-65
2021/03/24 09:49:35;;;;;;;29.00;11.88;;;;;;;;;;4980611;28;20108;-66
2021/03/24 09:52:11;;;;;;;25.50;12.48;;;;;;;;;;4983839;28;20038;-65
2021/03/24 09:54:56;;;;;;;30.45;12.25;;;;;;;;;;4985632;28;20054;-65
2021/03/24 09:57:26;;;;;;;29.90;12.85;;;;;;;;;;4984661;28;20117;-65
2021/03/24 09:59:59;;;;;;;29.17;12.77;;;;;;;;;;4981629;28;20335;-65
2021/03/24 10:02:30;;;;;;;24.02;12.00;;;;;;;;;;4984796;28;20054;-65
2021/03/24 10:05:03;;;;;;;26.30;13.05;;;;;;;;;;4986707;28;20054;-66
2021/03/24 10:07:39;;;;;;;23.42;12.52;;;;;;;;;;4986387;28;20478;-66
2021/03/24 10:10:09;;;;;;;26.35;11.77;;;;;;;;;;4986061;28;20120;-66
2021/03/24 10:12:40;;;;;;;23.77;12.30;;;;;;;;;;4985571;28;20061;-66
2021/03/24 10:15:10;;;;;;;30.75;13.07;;;;;;;;;;4983699;28;20053;-66
2021/03/24 10:17:52;;;;;;;34.90;13.65;;;;;;;;;;4984990;28;20061;-66
2021/03/24 10:20:25;;;;;;;23.88;12.02;;;;;;;;;;4986045;28;20050;-66
2021/03/24 10:22:55;;;;;;;27.17;13.27;;;;;;;;;;4981330;28;20145;-67
2021/03/24 10:25:26;;;;;;;27.42;12.93;;;;;;;;;;4985430;28;20046;-66
2021/03/24 10:27:55;;;;;;;28.48;13.07;;;;;;;;;;4984163;28;20070;-66
2021/03/24 10:30:35;;;;;;;25.95;11.82;;;;;;;;;;4985733;28;20050;-66
2021/03/24 10:33:08;;;;;;;21.85;10.82;;;;;;;;;;4984897;28;20057;-66
2021/03/24 10:35:40;;;;;;;23.42;11.43;;;;;;;;;;4987788;28;20142;-66
2021/03/24 10:38:21;;;;;;;22.92;11.05;;;;;;;;;;4983287;28;20405;-66
2021/03/24 10:41:03;;;;;;;22.55;10.50;;;;;;;;;;4986001;28;20501;-67
2021/03/24 10:43:34;;;;;;;20.45;10.32;;;;;;;;;;4980191;28;20046;-66
2021/03/24 10:46:10;;;;;;;21.38;10.32;;;;;;;;;;4984346;28;20397;-67
2021/03/24 10:48:43;;;;;;;19.05;9.63;;;;;;;;;;4986178;28;20052;-66
2021/03/24 10:51:13;;;;;;;14.40;8.48;;;;;;;;;;4986954;28;20058;-66
2021/03/24 10:53:41;;;;;;;19.00;9.65;;;;;;;;;;4986382;28;20457;-66
2021/03/24 10:56:17;;;;;;;16.98;9.50;;;;;;;;;;4986687;28;20050;-66
2021/03/24 10:58:47;;;;;;;21.23;9.75;;;;;;;;;;4979737;28;20424;-65
2021/03/24 11:01:17;;;;;;;17.95;8.32;;;;;;;;;;4991748;28;20406;-65
2021/03/24 11:03:57;;;;;;;21.13;9.68;;;;;;;;;;5005927;28;20049;-65
2021/03/24 11:06:31;;;;;;;28.02;10.10;;;;;;;;;;5005342;28;20048;-66
2021/03/24 11:09:01;;;;;;;23.70;10.02;;;;;;;;;;5004832;28;20068;-66
2021/03/24 11:11:31;;;;;;;20.52;10.18;;;;;;;;;;5001932;28;20061;-66
2021/03/24 11:14:00;;;;;;;17.42;9.05;;;;;;;;;;5008430;28;20062;-66
2021/03/24 11:16:36;;;;;;;13.90;7.97;;;;;;;;;;5007077;28;20062;-65
2021/03/24 11:19:11;;;;;;;17.38;9.05;;;;;;;;;;5007710;28;20115;-65
2021/03/24 11:21:44;;;;;;;16.85;8.50;;;;;;;;;;5008793;28;20145;-65
2021/03/24 11:24:19;;;;;;;19.58;8.77;;;;;;;;;;5008870;28;20050;-66
2021/03/24 11:26:52;;;;;;;19.85;9.45;;;;;;;;;;5002525;28;20052;-66
2021/03/24 11:29:22;;;;;;;15.25;8.07;;;;;;;;;;5006973;28;20478;-66
2021/03/24 11:31:52;;;;;;;18.55;9.18;;;;;;;;;;5007919;28;20141;-66
2021/03/24 11:34:23;;;;;;;18.13;8.98;;;;;;;;;;5008214;28;20053;-66
2021/03/24 11:36:55;;;;;;;22.27;9.65;;;;;;;;;;5006236;28;20521;-67
2021/03/24 11:39:27;;;;;;;17.05;8.27;;;;;;;;;;5006288;28;20462;-65
2021/03/24 11:42:08;;;;;;;19.95;8.43;;;;;;;;;;5008730;28;20057;-65
2021/03/24 11:44:35;;;;;;;19.10;9.15;;;;;;;;;;5006983;28;20046;-66
2021/03/24 11:47:09;;;;;;;13.73;8.40;;;;;;;;;;5002579;28;20490;-66
2021/03/24 11:49:43;;;;;;;21.38;9.35;;;;;;;;;;5006439;28;20125;-65
2021/03/24 11:52:23;;;;;;;16.55;8.05;;;;;;;;;;5006857;28;20131;-67
2021/03/24 11:54:56;;;;;;;17.92;8.98;;;;;;;;;;5009752;28;20049;-65
2021/03/24 11:57:30;;;;;;;17.95;7.80;;;;;;;;;;5007354;28;20053;-65
2021/03/24 12:00:04;;;;;;;17.42;8.68;;;;;;;;;;5004850;28;21163;-66
2021/03/24 12:02:39;;;;;;;18.65;8.40;;;;;;;;;;5006640;28;20428;-66
2021/03/24 12:05:13;;;;;;;15.63;8.40;;;;;;;;;;4986916;28;20156;-66
2021/03/24 12:07:53;;;;;;;16.80;7.55;;;;;;;;;;4992812;28;20054;-66
2021/03/24 12:10:27;;;;;;;14.10;7.13;;;;;;;;;;4997039;28;20139;-66
2021/03/24 12:13:01;;;;;;;13.93;7.45;;;;;;;;;;4986574;28;20344;-66
2021/03/24 12:15:31;;;;;;;23.42;8.15;;;;;;;;;;4987999;28;20566;-66
2021/03/24 12:18:07;;;;;;;15.63;8.50;;;;;;;;;;4986665;28;20401;-66
2021/03/24 12:20:45;;;;;;;14.20;7.25;;;;;;;;;;4997050;28;20385;-66
2021/03/24 12:23:14;;;;;;;19.40;7.43;;;;;;;;;;4987249;28;20054;-66
2021/03/24 12:25:45;;;;;;;16.77;8.05;;;;;;;;;;4988486;28;20081;-66
2021/03/24 12:28:13;;;;;;;14.68;7.57;;;;;;;;;;4988431;28;20369;-66
2021/03/24 12:30:44;;;;;;;13.98;7.22;;;;;;;;;;4986913;28;20054;-66
2021/03/24 12:33:25;;;;;;;15.02;7.03;;;;;;;;;;4978453;28;20050;-67
2021/03/24 12:36:05;;;;;;;13.25;7.82;;;;;;;;;;4985763;28;20537;-66
2021/03/24 12:38:40;;;;;;;14.63;7.95;;;;;;;;;;4984910;28;20058;-67
2021/03/24 12:41:08;;;;;;;18.98;8.70;;;;;;;;;;4987756;28;20042;-65
2021/03/24 12:43:37;;;;;;;14.43;7.80;;;;;;;;;;4986248;28;20670;-65
2021/03/24 12:46:09;;;;;;;16.80;7.45;;;;;;;;;;4986704;28;20077;-66
2021/03/24 12:48:37;;;;;;;15.18;7.38;;;;;;;;;;4983847;28;20064;-66
2021/03/24 12:51:11;;;;;;;15.07;7.70;;;;;;;;;;4985794;28;20449;-66
2021/03/24 12:53:45;;;;;;;13.00;6.35;;;;;;;;;;4988179;28;20050;-67
2021/03/24 12:56:22;;;;;;;18.30;7.45;;;;;;;;;;4986388;28;20555;-66
2021/03/24 12:58:55;;;;;;;16.88;6.82;;;;;;;;;;4984881;28;20046;-66
2021/03/24 13:01:43;;;;;;;19.25;8.07;;;;;;;;;;4999135;28;20060;-66
2021/03/24 13:04:32;;;;;;;13.73;7.40;;;;;;;;;;5006857;28;20049;-66
2021/03/24 13:07:18;;;;;;;13.90;7.72;;;;;;;;;;5000686;28;20061;-66
2021/03/24 13:09:54;;;;;;;15.18;7.25;;;;;;;;;;4984251;28;20054;-66
2021/03/24 13:12:24;;;;;;;15.45;7.03;;;;;;;;;;5006705;28;20057;-66
2021/03/24 13:15:02;;;;;;;15.25;7.30;;;;;;;;;;5006401;28;20046;-65
2021/03/24 13:17:34;;;;;;;17.27;7.45;;;;;;;;;;5007731;28;20131;-66
2021/03/24 13:20:17;;;;;;;14.60;7.57;;;;;;;;;;5001428;28;20264;-66
2021/03/24 13:22:48;;;;;;;14.48;7.22;;;;;;;;;;5004610;28;20080;-66
2021/03/24 13:25:25;;;;;;;14.00;6.80;;;;;;;;;;4995502;28;20506;-66
2021/03/24 13:28:04;;;;;;;14.82;7.30;;;;;;;;;;5001543;28;20512;-66
2021/03/24 13:30:33;;;;;;;16.77;7.50;;;;;;;;;;5000993;28;20446;-66
2021/03/24 13:33:04;;;;;;;11.32;5.95;;;;;;;;;;5009044;28;20050;-66
2021/03/24 13:35:34;;;;;;;12.77;6.57;;;;;;;;;;5006012;28;20056;-66
2021/03/24 13:38:03;;;;;;;14.30;6.18;;;;;;;;;;5002416;28;20042;-66
2021/03/24 13:40:33;;;;;;;14.50;6.38;;;;;;;;;;5007324;28;20081;-66
2021/03/24 13:43:02;;;;;;;12.30;6.13;;;;;;;;;;5008453;28;20089;-66
2021/03/24 13:45:34;;;;;;;16.45;6.50;;;;;;;;;;5005068;28;20059;-66
2021/03/24 13:48:06;;;;;;;12.73;6.47;;;;;;;;;;5011465;28;20054;-66
2021/03/24 13:50:36;;;;;;;11.05;6.00;;;;;;;;;;5010728;28;20049;-66
2021/03/24 13:53:06;;;;;;;12.65;6.65;;;;;;;;;;5010401;28;20061;-66
2021/03/24 13:55:53;;;;;;;13.68;6.68;;;;;;;;;;5012623;28;20132;-66
2021/03/24 13:58:44;;;;;;;13.05;6.88;;;;;;;;;;5004253;28;20050;-66
2021/03/24 14:01:17;;;;;;;11.88;6.70;;;;;;;;;;4991210;28;20057;-66
2021/03/24 14:03:49;;;;;;;12.70;6.75;;;;;;;;;;4991788;28;20078;-66
2021/03/24 14:06:20;;;;;;;13.07;6.65;;;;;;;;;;4987932;28;20077;-66
2021/03/24 14:08:53;;;;;;;14.43;6.68;;;;;;;;;;4986271;28;20085;-66
2021/03/24 14:11:36;;;;;;;11.15;7.20;;;;;;;;;;5006324;28;20524;-66
2021/03/24 14:14:09;;;;;;;12.15;6.40;;;;;;;;;;4974933;28;20104;-65
2021/03/24 14:16:40;;;;;;;16.02;6.75;;;;;;;;;;4995474;28;20111;-66
2021/03/24 14:19:16;;;;;;;13.75;5.88;;;;;;;;;;5004108;28;20127;-66
2021/03/24 14:21:49;;;;;;;16.83;6.82;;;;;;;;;;4998258;28;20058;-66
2021/03/24 14:24:19;;;;;;;11.63;6.82;;;;;;;;;;4986972;28;20063;-65
2021/03/24 14:26:56;;;;;;;16.30;6.70;;;;;;;;;;4987412;28;20062;-66
2021/03/24 14:29:40;;;;;;;14.23;6.18;;;;;;;;;;4973742;28;20046;-66
2021/03/24 14:32:17;;;;;;;15.13;6.28;;;;;;;;;;4981166;28;20457;-65
2021/03/24 14:34:57;;;;;;;13.73;6.47;;;;;;;;;;4991064;28;20439;-66
2021/03/24 14:37:40;;;;;;;10.88;5.88;;;;;;;;;;4980669;28;20389;-66
2021/03/24 14:40:20;;;;;;;12.95;6.68;;;;;;;;;;4997118;28;20061;-67
2021/03/24 14:42:50;;;;;;;11.20;5.70;;;;;;;;;;4992570;28;20494;-65
2021/03/24 14:45:22;;;;;;;12.00;6.65;;;;;;;;;;4988662;28;20093;-66
2021/03/24 14:47:59;;;;;;;13.02;5.25;;;;;;;;;;4988088;28;20051;-65
2021/03/24 14:50:38;;;;;;;11.38;5.70;;;;;;;;;;4990243;28;20070;-65
2021/03/24 14:53:12;;;;;;;10.57;5.10;;;;;;;;;;4989070;28;20490;-65
2021/03/24 14:55:52;;;;;;;9.25;5.03;;;;;;;;;;4991796;28;20104;-66
2021/03/24 14:58:27;;;;;;;12.27;4.63;;;;;;;;;;4986987;28;20046;-66
2021/03/24 15:00:56;;;;;;;10.80;5.18;;;;;;;;;;4988084;28;20381;-66
2021/03/24 15:03:27;;;;;;;8.52;5.60;;;;;;;;;;4988820;28;20050;-66